Time;durP1;ratioP1;P1;durP2;ratioP2;P2;SDS_P1;SDS_P2;PMS_P1;PMS_P2;Temp;Humidity;BMP_temperature;BMP_pressure;BME280_temperature;BME280_humidity;BME280_pressure;Samples;Min_cycle;Max_cycle;Signal;HPM_P1;HPM_P2
2022/07/26 00:01:44;;;;;;;3.78;1.20;;;;;;;-148.88;59.45;74579.00;5053037;28;20543;-84
2022/07/26 00:04:10;;;;;;;6.15;1.20;;;;;;;-148.88;60.03;74595.25;5052880;28;20056;-84
2022/07/26 00:06:36;;;;;;;6.90;1.23;;;;;;;-148.88;59.85;74591.19;5053168;28;20046;-84
2022/07/26 00:09:02;;;;;;;4.70;1.15;;;;;;;-148.88;60.12;74593.22;5052823;28;20025;-83
2022/07/26 00:11:29;;;;;;;4.60;1.35;;;;;;;-148.88;60.80;74611.47;5053106;28;20017;-84
2022/07/26 00:13:54;;;;;;;6.05;1.13;;;;;;;-148.88;60.91;74607.41;5053596;28;20052;-84
2022/07/26 00:16:20;;;;;;;6.25;1.30;;;;;;;-148.88;61.15;74603.34;5053366;28;20173;-84
2022/07/26 00:18:46;;;;;;;5.63;1.25;;;;;;;-148.88;61.15;74601.31;5053316;28;20021;-83
2022/07/26 00:21:11;;;;;;;5.75;1.40;;;;;;;-148.88;61.37;74603.34;5052856;28;20040;-83
2022/07/26 00:23:38;;;;;;;6.35;1.27;;;;;;;-148.88;62.27;74613.50;5052969;28;20384;-84
2022/07/26 00:26:03;;;;;;;4.57;1.30;;;;;;;-148.88;61.82;74603.34;5052545;28;20395;-84
2022/07/26 00:28:28;;;;;;;5.97;1.23;;;;;;;-148.88;62.15;74607.41;5052691;28;20028;-83
2022/07/26 00:30:54;;;;;;;5.32;1.55;;;;;;;-148.88;62.67;74611.47;5052646;28;20024;-83
2022/07/26 00:33:19;;;;;;;5.63;1.20;;;;;;;-148.88;62.92;74615.53;5052390;28;20032;-84
2022/07/26 00:35:44;;;;;;;8.98;1.55;;;;;;;-148.88;63.43;74629.75;5052909;28;20035;-83
2022/07/26 00:38:09;;;;;;;6.20;1.42;;;;;;;-148.88;62.73;74611.47;5052531;28;20024;-85
2022/07/26 00:40:35;;;;;;;8.32;1.73;;;;;;;-148.88;63.13;74611.47;5052877;28;20021;-83
2022/07/26 00:43:00;;;;;;;4.05;1.33;;;;;;;-148.88;63.62;74625.69;5051916;28;20472;-83
2022/07/26 00:45:25;;;;;;;6.30;1.30;;;;;;;-148.88;63.18;74621.63;5052175;28;20028;-84
2022/07/26 00:47:51;;;;;;;8.18;1.55;;;;;;;-148.88;63.99;74639.91;5053833;28;20108;-84
2022/07/26 00:50:17;;;;;;;6.57;1.38;;;;;;;-148.88;64.25;74635.84;5052192;28;20025;-83
2022/07/26 00:52:44;;;;;;;8.60;2.13;;;;;;;-148.88;64.28;74643.97;5052145;28;20479;-84
2022/07/26 00:55:10;;;;;;;4.88;1.58;;;;;;;-148.88;65.08;74654.13;5053472;28;20033;-85
2022/07/26 00:57:37;;;;;;;5.43;1.58;;;;;;;-148.88;65.06;74652.09;5052288;28;20024;-84
2022/07/26 01:00:06;;;;;;;5.70;1.55;;;;;;;-148.88;65.74;74662.25;5052856;28;20487;-84
2022/07/26 01:02:31;;;;;;;4.45;1.30;;;;;;;-148.88;65.99;74664.28;5053621;28;20448;-84
2022/07/26 01:04:57;;;;;;;6.22;1.60;;;;;;;-148.88;66.49;74672.41;5052404;28;20479;-86
2022/07/26 01:07:22;;;;;;;5.97;1.60;;;;;;;-148.88;66.26;74666.31;5052187;28;20028;-86
2022/07/26 01:09:48;;;;;;;9.18;1.83;;;;;;;-148.88;66.66;74670.38;5053031;28;20021;-85
2022/07/26 01:12:13;;;;;;;5.03;1.35;;;;;;;-148.88;67.67;74688.66;5053388;28;20033;-85
2022/07/26 01:14:42;;;;;;;8.60;1.55;;;;;;;-148.88;67.73;74684.59;5053338;28;20021;-85
2022/07/26 01:17:07;;;;;;;5.10;1.80;;;;;;;-148.88;68.11;74688.66;5055482;28;20048;-84
2022/07/26 01:19:32;;;;;;;5.20;1.63;;;;;;;-148.88;68.00;74684.59;5052448;28;20025;-84
2022/07/26 01:21:58;;;;;;;4.70;1.60;;;;;;;-148.88;67.77;74678.50;5052847;28;20056;-84
2022/07/26 01:24:23;;;;;;;8.70;1.80;;;;;;;-148.88;68.05;74674.44;5053410;28;20499;-85
2022/07/26 01:26:48;;;;;;;9.52;1.92;;;;;;;-148.88;68.81;74686.63;5053584;28;20021;-84
2022/07/26 01:29:14;;;;;;;7.00;1.80;;;;;;;-148.88;69.04;74682.56;5052527;28;20056;-83
2022/07/26 01:31:39;;;;;;;6.82;1.98;;;;;;;-148.88;69.60;74700.84;5052554;28;20032;-84
2022/07/26 01:34:04;;;;;;;10.55;2.03;;;;;;;-148.88;69.54;74690.69;5051574;28;20025;-84
2022/07/26 01:36:30;;;;;;;6.82;1.60;;;;;;;-148.88;69.49;74688.66;5051936;28;20509;-83
2022/07/26 01:38:55;;;;;;;6.35;2.05;;;;;;;-148.88;69.99;74696.78;5052911;28;20028;-84
2022/07/26 01:41:20;;;;;;;8.18;2.17;;;;;;;-148.88;69.92;74692.72;5051687;28;20024;-83
2022/07/26 01:43:46;;;;;;;6.15;1.90;;;;;;;-148.88;70.06;74694.75;5053189;28;20036;-84
2022/07/26 01:46:12;;;;;;;6.13;1.92;;;;;;;-148.88;70.58;74694.75;5051960;28;20438;-83
2022/07/26 01:48:38;;;;;;;8.43;1.95;;;;;;;-148.88;70.55;74688.66;5051769;28;20541;-84
2022/07/26 01:51:03;;;;;;;9.40;2.10;;;;;;;-148.88;71.90;74713.00;5051783;28;20029;-84
2022/07/26 01:53:28;;;;;;;8.00;1.65;;;;;;;-148.88;72.52;74725.19;5055070;28;20063;-84
2022/07/26 01:55:54;;;;;;;10.77;2.00;;;;;;;-148.88;71.92;74704.88;5057961;28;20468;-85
2022/07/26 01:58:20;;;;;;;6.80;1.70;;;;;;;-148.88;72.79;74719.09;5055563;28;20048;-83
2022/07/26 02:00:46;;;;;;;8.00;2.17;;;;;;;-148.88;73.58;74725.19;5055439;28;20052;-83
2022/07/26 02:03:11;;;;;;;5.07;1.70;;;;;;;-148.88;73.44;74721.13;5055547;28;20017;-83
2022/07/26 02:05:36;;;;;;;10.57;2.25;;;;;;;-148.88;74.88;74745.50;5055381;28;20020;-85
2022/07/26 02:08:02;;;;;;;10.52;2.35;;;;;;;-148.88;74.56;74739.41;5057168;28;20025;-83
2022/07/26 02:10:59;;;;;;;6.55;1.88;;;;;;;-148.88;75.22;74753.63;5055114;28;20074;-83
2022/07/26 02:13:13;;;;;;;7.15;1.90;;;;;;;-148.88;75.54;74753.63;5056369;28;20064;-83
2022/07/26 02:15:39;;;;;;;8.98;2.00;;;;;;;-148.88;75.83;74759.72;5055045;28;20025;-85
2022/07/26 02:18:04;;;;;;;10.98;2.60;;;;;;;-148.88;76.49;74775.97;5055019;28;20032;-84
2022/07/26 02:20:32;;;;;;;9.25;2.00;;;;;;;-148.88;75.73;74757.69;5054923;28;20063;-84
2022/07/26 02:22:59;;;;;;;8.00;2.45;;;;;;;-148.88;76.44;74773.94;5054920;28;20036;-84
2022/07/26 02:25:24;;;;;;;10.20;2.28;;;;;;;-148.88;76.22;74761.75;5055049;28;20028;-83
2022/07/26 02:27:49;;;;;;;7.88;2.22;;;;;;;-148.88;76.12;74757.69;5054867;28;20021;-84
2022/07/26 02:30:15;;;;;;;7.38;2.30;;;;;;;-148.88;77.81;74782.06;5056230;28;20391;-84
2022/07/26 02:32:42;;;;;;;9.43;1.80;;;;;;;-148.88;76.53;74765.81;5055158;28;20491;-84
2022/07/26 02:35:08;;;;;;;4.90;2.10;;;;;;;-148.88;77.68;74778.00;5054862;28;20021;-84
2022/07/26 02:37:33;;;;;;;13.27;2.50;;;;;;;-148.88;77.61;74784.09;5055866;28;20031;-83
2022/07/26 02:39:58;;;;;;;6.43;2.15;;;;;;;-148.88;77.90;74782.06;5055964;28;20479;-84
2022/07/26 02:42:24;;;;;;;7.10;2.13;;;;;;;-148.88;78.50;74790.19;5055919;28;20032;-83
2022/07/26 02:44:49;;;;;;;7.70;2.50;;;;;;;-148.88;78.99;74794.25;5054712;28;20067;-85
2022/07/26 02:47:14;;;;;;;10.07;2.45;;;;;;;-148.88;78.40;74786.13;5055131;28;20120;-84
2022/07/26 02:49:40;;;;;;;10.20;2.42;;;;;;;-148.88;79.57;74794.25;5055814;28;20035;-84
2022/07/26 02:52:05;;;;;;;7.88;2.30;;;;;;;-148.88;79.16;74778.00;5055733;28;20055;-83
2022/07/26 02:56:58;;;;;;;9.05;2.30;;;;;;;-148.88;78.30;74773.94;5037824;28;20046;-78
2022/07/26 02:59:23;;;;;;;12.85;2.40;;;;;;;-148.88;79.04;74780.03;5022681;28;20021;-78
2022/07/26 03:01:48;;;;;;;8.07;2.45;;;;;;;-148.88;79.17;74794.25;5039021;28;20029;-78
2022/07/26 03:04:13;;;;;;;9.40;2.38;;;;;;;-148.88;78.85;74778.00;5035377;28;20029;-77
2022/07/26 03:06:39;;;;;;;9.30;2.10;;;;;;;-148.88;79.16;74786.13;5035823;28;20108;-77
2022/07/26 03:09:04;;;;;;;9.88;2.67;;;;;;;-148.88;79.44;74790.19;5038557;28;20021;-78
2022/07/26 03:11:29;;;;;;;9.57;2.65;;;;;;;-148.88;79.09;74782.06;5038075;28;20413;-78
2022/07/26 03:13:55;;;;;;;9.00;2.38;;;;;;;-148.88;79.39;74788.16;5040872;28;20048;-78
2022/07/26 03:16:20;;;;;;;9.55;2.85;;;;;;;-148.88;79.35;74790.19;5040390;28;20066;-78
2022/07/26 03:18:45;;;;;;;9.18;2.47;;;;;;;-148.88;79.55;74794.25;5039347;28;20048;-78
2022/07/26 03:21:11;;;;;;;8.52;2.47;;;;;;;-148.88;79.57;74802.38;5039675;28;20052;-78
2022/07/26 03:23:36;;;;;;;6.68;2.70;;;;;;;-148.88;79.96;74804.41;5039314;28;20115;-78
2022/07/26 03:26:02;;;;;;;7.47;2.30;;;;;;;-148.88;79.50;74794.25;5039003;28;20032;-78
2022/07/26 03:28:34;;;;;;;10.82;2.97;;;;;;;-148.88;79.56;74794.25;5039166;28;20114;-78
2022/07/26 03:31:00;;;;;;;10.20;2.63;;;;;;;-148.88;80.79;74810.50;5040571;28;20028;-78
2022/07/26 03:33:25;;;;;;;10.02;2.67;;;;;;;-148.88;80.28;74816.56;5040016;28;20026;-78
2022/07/26 03:35:50;;;;;;;7.10;2.58;;;;;;;-148.88;80.36;74816.56;5039436;28;20475;-78
2022/07/26 03:38:16;;;;;;;12.15;3.13;;;;;;;-148.88;80.65;74824.69;5040587;28;20028;-78
2022/07/26 03:40:41;;;;;;;12.50;2.67;;;;;;;-148.88;80.17;74818.59;5038115;28;20108;-77
2022/07/26 03:43:06;;;;;;;7.68;2.60;;;;;;;-148.88;80.17;74818.59;5035197;28;20149;-77
2022/07/26 03:45:31;;;;;;;10.75;2.47;;;;;;;-148.88;79.69;74822.66;5033748;28;20053;-77
2022/07/26 03:47:57;;;;;;;11.68;2.58;;;;;;;-148.88;79.40;74804.41;5036706;28;20033;-78
2022/07/26 03:50:22;;;;;;;7.22;2.13;;;;;;;-148.88;79.59;74814.53;5035571;28;20044;-77
2022/07/26 03:52:47;;;;;;;9.13;2.75;;;;;;;-148.88;79.90;74824.69;5036571;28;20384;-78
2022/07/26 03:58:13;;;;;;;8.27;2.50;;;;;;;-148.88;80.15;74836.88;5013915;28;20438;-78
2022/07/26 04:00:38;;;;;;;4.97;2.17;;;;;;;-148.88;80.08;74828.75;5026789;28;20037;-78
2022/07/26 04:03:04;;;;;;;9.80;2.75;;;;;;;-148.88;80.30;74838.91;5036476;28;20442;-77
2022/07/26 04:05:29;;;;;;;7.68;2.85;;;;;;;-148.88;80.99;74845.00;5036401;28;20037;-78
2022/07/26 04:07:54;;;;;;;7.22;2.70;;;;;;;-148.88;80.52;74840.94;5036458;28;20399;-77
2022/07/26 04:10:21;;;;;;;8.00;2.60;;;;;;;-148.88;80.23;74836.88;5036926;28;20133;-78
2022/07/26 04:12:47;;;;;;;7.70;2.20;;;;;;;-148.88;80.75;74836.88;5037652;28;20025;-77
2022/07/26 04:15:12;;;;;;;7.05;2.63;;;;;;;-148.88;80.38;74832.81;5037016;28;20033;-77
2022/07/26 04:17:39;;;;;;;8.05;2.33;;;;;;;-148.88;80.21;74826.72;5034654;28;20030;-77
2022/07/26 04:20:06;;;;;;;9.57;2.45;;;;;;;-148.88;80.93;74842.97;5033894;28;20407;-77
2022/07/26 04:22:33;;;;;;;7.53;2.53;;;;;;;-148.88;81.26;74847.03;5033309;28;20048;-77
2022/07/26 04:24:59;;;;;;;9.70;3.22;;;;;;;-148.88;81.10;74847.03;5033113;28;20550;-77
2022/07/26 04:27:24;;;;;;;10.27;2.95;;;;;;;-148.88;81.83;74849.06;5035091;28;20061;-77
2022/07/26 04:29:49;;;;;;;9.40;2.95;;;;;;;-148.88;81.84;74847.03;5036209;28;20021;-77
2022/07/26 04:32:14;;;;;;;8.40;2.80;;;;;;;-148.88;81.51;74849.06;5036443;28;20029;-77
2022/07/26 04:34:40;;;;;;;13.05;2.70;;;;;;;-148.88;81.97;74855.16;5036141;28;20025;-77
2022/07/26 04:37:05;;;;;;;8.00;2.53;;;;;;;-148.88;81.99;74851.09;5036186;28;20104;-77
2022/07/26 04:39:30;;;;;;;8.00;2.47;;;;;;;-148.88;82.22;74857.19;5035138;28;20083;-77
2022/07/26 04:41:55;;;;;;;7.25;2.70;;;;;;;-148.88;82.00;74855.16;5035727;28;20040;-77
2022/07/26 04:44:21;;;;;;;7.03;2.72;;;;;;;-148.88;82.43;74859.22;5035354;28;20079;-77
2022/07/26 04:46:46;;;;;;;6.22;2.30;;;;;;;-148.88;82.27;74851.09;5036651;28;20032;-78
2022/07/26 04:49:12;;;;;;;11.73;2.90;;;;;;;-148.88;82.30;74851.09;5036123;28;20478;-77
2022/07/26 04:51:38;;;;;;;12.13;2.90;;;;;;;-148.88;82.49;74851.09;5035374;28;20021;-77
2022/07/26 04:54:03;;;;;;;6.30;2.40;;;;;;;-148.88;82.08;74849.06;5034941;28;20052;-77
2022/07/26 04:56:28;;;;;;;9.82;3.17;;;;;;;-148.88;82.47;74863.28;5035130;28;20060;-77
2022/07/26 04:58:53;;;;;;;10.35;3.40;;;;;;;-148.88;82.99;74859.22;5033738;28;20029;-77
2022/07/26 05:01:19;;;;;;;9.00;3.00;;;;;;;-148.88;82.32;74859.22;5034197;28;20021;-77
2022/07/26 05:03:44;;;;;;;8.65;2.60;;;;;;;-148.88;82.37;74851.09;5034614;28;20025;-77
2022/07/26 05:06:09;;;;;;;8.38;3.00;;;;;;;-148.88;82.54;74851.09;5035355;28;20422;-77
2022/07/26 05:08:35;;;;;;;7.60;3.10;;;;;;;-148.88;82.67;74855.16;5036577;28;20033;-77
2022/07/26 05:11:00;;;;;;;9.00;3.20;;;;;;;-148.88;83.08;74855.16;5035150;28;20483;-77
2022/07/26 05:13:25;;;;;;;12.30;3.20;;;;;;;-148.88;83.33;74847.03;5034162;28;20504;-77
2022/07/26 05:15:51;;;;;;;11.75;2.92;;;;;;;-148.88;82.99;74851.09;5034846;28;20570;-77
2022/07/26 05:18:16;;;;;;;8.70;3.50;;;;;;;-148.88;83.38;74857.19;5035379;28;20022;-77
2022/07/26 05:20:42;;;;;;;11.63;3.80;;;;;;;-148.88;83.24;74851.09;5034244;28;20375;-77
2022/07/26 05:23:07;;;;;;;8.45;3.15;;;;;;;-148.88;82.76;74842.97;5035381;28;20033;-77
2022/07/26 05:25:33;;;;;;;7.80;3.00;;;;;;;-148.88;83.08;74851.09;5035015;28;20112;-77
2022/07/26 05:27:58;;;;;;;7.45;3.17;;;;;;;-148.88;83.49;74851.09;5036860;28;20036;-77
2022/07/26 05:30:23;;;;;;;12.43;3.60;;;;;;;-148.88;83.42;74853.13;5039188;28;20033;-77
2022/07/26 05:32:49;;;;;;;14.30;3.53;;;;;;;-148.88;83.37;74845.00;5039513;28;20037;-78
2022/07/26 05:35:14;;;;;;;11.13;3.92;;;;;;;-148.88;83.38;74840.94;5039173;28;20025;-78
2022/07/26 05:37:39;;;;;;;14.40;4.18;;;;;;;-148.88;83.53;74836.88;5038063;28;20144;-78
2022/07/26 05:40:06;;;;;;;9.77;3.60;;;;;;;-148.88;83.92;74842.97;5038774;28;20139;-78
2022/07/26 05:42:31;;;;;;;12.35;4.07;;;;;;;-148.88;83.16;74836.88;5038381;28;20501;-78
2022/07/26 05:44:56;;;;;;;10.50;3.72;;;;;;;-148.88;83.39;74845.00;5038785;28;20029;-78
2022/07/26 05:47:22;;;;;;;11.02;3.85;;;;;;;-148.88;83.34;74836.88;5042770;28;20022;-78
2022/07/26 05:49:47;;;;;;;8.95;3.45;;;;;;;-148.88;83.63;74842.97;5041078;28;20021;-78
2022/07/26 05:52:13;;;;;;;10.23;3.80;;;;;;;-148.88;82.88;74822.66;5041140;28;20467;-78
2022/07/26 05:54:38;;;;;;;11.40;3.72;;;;;;;-148.88;82.49;74824.69;5042246;28;20064;-78
2022/07/26 05:57:03;;;;;;;6.85;3.90;;;;;;;-148.88;82.81;74830.78;5042452;28;20056;-79
2022/07/26 05:59:30;;;;;;;10.18;4.00;;;;;;;-148.88;83.08;74832.81;5042920;28;20021;-79
2022/07/26 06:01:55;;;;;;;8.82;3.50;;;;;;;-148.88;83.10;74828.75;5042843;28;20030;-79
2022/07/26 06:04:22;;;;;;;8.50;3.65;;;;;;;-148.88;82.59;74818.59;5041312;28;20018;-79
2022/07/26 06:06:48;;;;;;;12.32;4.20;;;;;;;-148.88;83.06;74812.53;5042054;28;20031;-78
2022/07/26 06:09:13;;;;;;;12.48;4.30;;;;;;;-148.88;82.54;74818.59;5042193;28;20021;-79
2022/07/26 06:11:38;;;;;;;11.82;3.97;;;;;;;-148.88;82.57;74814.53;5042146;28;20450;-78
2022/07/26 06:14:04;;;;;;;18.30;4.60;;;;;;;-148.88;82.24;74812.53;5037246;28;20489;-78
2022/07/26 06:16:29;;;;;;;10.38;3.92;;;;;;;-148.88;81.38;74794.25;5037100;28;20457;-78
2022/07/26 06:18:54;;;;;;;10.98;4.28;;;;;;;-148.88;81.85;74786.13;5036228;28;20044;-78
2022/07/26 06:21:19;;;;;;;10.13;4.07;;;;;;;-148.88;81.43;74782.06;5037483;28;20021;-78
2022/07/26 06:23:45;;;;;;;10.85;4.38;;;;;;;-148.88;81.09;74786.13;5037792;28;20022;-78
2022/07/26 06:26:11;;;;;;;10.43;4.25;;;;;;;-148.88;80.42;74778.00;5041178;28;20079;-79
2022/07/26 06:28:38;;;;;;;10.73;4.03;;;;;;;-148.88;80.34;74790.19;5041777;28;20100;-79
2022/07/26 06:31:03;;;;;;;9.32;4.10;;;;;;;-148.88;81.12;74790.19;5044023;28;20403;-79
2022/07/26 06:33:29;;;;;;;10.85;4.28;;;;;;;-148.88;80.55;74782.06;5043167;28;20540;-79
2022/07/26 06:35:54;;;;;;;14.15;5.00;;;;;;;-148.88;79.75;74765.81;5043657;28;20032;-79
2022/07/26 06:38:19;;;;;;;13.52;4.60;;;;;;;-148.88;79.98;74753.63;5041884;28;20026;-78
2022/07/26 06:40:44;;;;;;;10.55;4.40;;;;;;;-148.88;79.53;74751.59;5042462;28;20386;-79
2022/07/26 06:43:10;;;;;;;12.60;4.55;;;;;;;-148.88;78.74;74749.56;5043711;28;20018;-79
2022/07/26 06:45:35;;;;;;;11.90;5.40;;;;;;;-148.88;78.23;74761.75;5042381;28;20025;-79
2022/07/26 06:48:00;;;;;;;11.07;5.70;;;;;;;-148.88;78.72;74763.78;5042846;28;20085;-79
2022/07/26 06:50:26;;;;;;;13.15;5.32;;;;;;;-148.88;78.52;74753.63;5039581;28;20032;-78
2022/07/26 06:52:51;;;;;;;14.02;4.90;;;;;;;-148.88;78.80;74747.53;5035836;28;20021;-78
2022/07/26 06:55:16;;;;;;;9.82;5.78;;;;;;;-148.88;77.83;74729.25;5038267;28;20033;-78
2022/07/26 06:57:44;;;;;;;12.52;5.53;;;;;;;-148.88;77.57;74721.13;5036614;28;20025;-78
2022/07/26 07:00:10;;;;;;;12.55;6.13;;;;;;;-148.88;77.19;74741.44;5035972;28;20108;-78
2022/07/26 07:02:36;;;;;;;10.18;5.10;;;;;;;-148.88;77.75;74741.44;5037062;28;20033;-78
2022/07/26 07:05:01;;;;;;;9.77;5.30;;;;;;;-148.88;77.46;74749.56;5040334;28;20018;-78
2022/07/26 07:07:27;;;;;;;15.57;5.55;;;;;;;-148.88;77.34;74759.72;5042772;28;20032;-79
2022/07/26 07:09:52;;;;;;;13.57;5.30;;;;;;;-148.88;77.93;74757.69;5042207;28;20100;-79
2022/07/26 07:12:17;;;;;;;11.05;5.68;;;;;;;-148.88;76.82;74739.41;5042168;28;20025;-79
2022/07/26 07:14:43;;;;;;;10.35;5.45;;;;;;;-148.88;77.05;74757.69;5040890;28;20032;-79
2022/07/26 07:17:08;;;;;;;9.95;5.85;;;;;;;-148.88;77.18;74751.59;5041810;28;20025;-79
2022/07/26 07:19:35;;;;;;;10.52;5.18;;;;;;;-148.88;76.04;74741.44;5042017;28;20022;-79
2022/07/26 07:22:02;;;;;;;8.55;5.05;;;;;;;-148.88;76.56;74749.56;5042157;28;20025;-79
2022/07/26 07:24:27;;;;;;;10.13;4.90;;;;;;;-148.88;76.22;74747.53;5042936;28;20385;-79
2022/07/26 07:26:52;;;;;;;9.90;5.05;;;;;;;-148.88;76.46;74737.38;5041922;28;20479;-78
2022/07/26 07:29:19;;;;;;;10.98;5.18;;;;;;;-148.88;76.08;74729.25;5035757;28;20032;-78
2022/07/26 07:31:47;;;;;;;10.75;5.10;;;;;;;-148.88;75.22;74708.94;5033918;28;20029;-78
2022/07/26 07:34:14;;;;;;;10.40;4.43;;;;;;;-148.88;75.30;74696.78;5035648;28;20533;-78
2022/07/26 07:36:39;;;;;;;10.50;4.25;;;;;;;-148.88;73.35;74684.59;5035221;28;20037;-78
2022/07/26 07:39:05;;;;;;;8.82;4.43;;;;;;;-148.88;72.90;74684.59;5035399;28;20026;-78
2022/07/26 07:41:33;;;;;;;10.60;4.85;;;;;;;-148.88;72.97;74692.72;5036188;28;20048;-78
2022/07/26 07:43:58;;;;;;;7.88;3.83;;;;;;;-148.88;72.66;74694.75;5036194;28;20085;-79
2022/07/26 07:46:24;;;;;;;8.20;3.72;;;;;;;-148.88;73.32;74694.75;5043015;28;20048;-79
2022/07/26 07:48:49;;;;;;;8.45;3.60;;;;;;;-148.88;73.19;74670.38;5042498;28;20017;-79
2022/07/26 07:51:14;;;;;;;8.68;3.95;;;;;;;-148.88;72.07;74660.22;5042773;28;20483;-79
2022/07/26 07:53:40;;;;;;;7.63;4.00;;;;;;;-148.88;72.01;74666.31;5042354;28;20029;-79
2022/07/26 07:56:05;;;;;;;9.15;4.10;;;;;;;-148.88;72.00;74648.03;5042534;28;20376;-79
2022/07/26 07:58:31;;;;;;;10.00;3.42;;;;;;;-148.88;71.63;74648.03;5043125;28;20045;-79
2022/07/26 08:00:57;;;;;;;6.65;3.13;;;;;;;-148.88;70.56;74631.78;5041644;28;20077;-79
2022/07/26 08:03:22;;;;;;;7.93;3.35;;;;;;;-148.88;70.09;74611.47;5042049;28;20017;-79
2022/07/26 08:05:48;;;;;;;8.70;2.92;;;;;;;-148.88;68.46;74593.22;5037284;28;20032;-78
2022/07/26 08:08:13;;;;;;;9.75;3.10;;;;;;;-148.88;66.95;74583.06;5034530;28;20104;-78
2022/07/26 08:10:39;;;;;;;5.35;2.50;;;;;;;-148.88;67.74;74615.53;5034510;28;20033;-78
2022/07/26 08:13:04;;;;;;;9.57;3.22;;;;;;;-148.88;68.18;74599.28;5034973;28;20037;-77
2022/07/26 08:15:29;;;;;;;6.70;2.80;;;;;;;-148.88;69.28;74599.28;5034697;28;20025;-78
2022/07/26 08:17:55;;;;;;;6.65;2.45;;;;;;;-148.88;69.44;74641.94;5035020;28;20025;-78
2022/07/26 08:20:21;;;;;;;4.95;2.00;;;;;;;-148.88;71.43;74713.00;5034889;28;20069;-78
2022/07/26 08:22:46;;;;;;;3.63;1.60;;;;;;;-148.88;74.36;74769.88;5034884;28;20025;-78
2022/07/26 08:25:11;;;;;;;2.25;1.10;;;;;;;-148.88;77.06;74834.84;5041587;28;20022;-79
2022/07/26 08:27:37;;;;;;;5.07;1.30;;;;;;;-148.88;78.99;74855.16;5040995;28;20029;-79
2022/07/26 08:30:03;;;;;;;5.05;1.40;;;;;;;-148.88;81.73;74889.69;5042102;28;20025;-78
2022/07/26 08:32:28;;;;;;;2.17;1.30;;;;;;;-148.88;84.44;74928.28;5041410;28;20566;-79
2022/07/26 08:34:54;;;;;;;5.18;1.58;;;;;;;-148.88;86.22;74944.53;5041046;28;20092;-79
2022/07/26 08:37:19;;;;;;;6.05;1.70;;;;;;;-148.88;87.75;74974.97;5039072;28;20025;-79
2022/07/26 08:39:46;;;;;;;4.43;1.70;;;;;;;-148.88;89.89;74981.06;5041992;28;20053;-79
2022/07/26 08:42:19;;;;;;;3.78;1.83;;;;;;;-148.88;90.19;74995.28;5040803;28;20052;-78
2022/07/26 08:44:46;;;;;;;5.18;1.83;;;;;;;-148.88;90.12;74989.19;5033586;28;20040;-78
2022/07/26 08:47:16;;;;;;;2.75;1.80;;;;;;;-148.88;89.76;74999.34;5034065;28;20038;-78
2022/07/26 08:49:42;;;;;;;3.88;1.77;;;;;;;-148.88;90.12;74979.03;5034052;28;20382;-78
2022/07/26 08:52:09;;;;;;;3.00;1.70;;;;;;;-148.88;90.62;74983.09;5033857;28;20075;-78
2022/07/26 08:57:10;;;;;;;3.33;1.70;;;;;;;-148.88;89.42;74972.94;5051765;28;20106;-78
2022/07/26 08:59:36;;;;;;;3.00;1.58;;;;;;;-148.88;88.68;74970.91;5053790;28;20032;-78
2022/07/26 09:02:04;;;;;;;3.15;1.90;;;;;;;-148.88;89.77;74952.63;5052143;28;20036;-77
2022/07/26 09:04:35;;;;;;;4.70;2.05;;;;;;;-148.88;90.26;74946.53;5054143;28;20021;-77
2022/07/26 09:07:17;;;;;;;2.92;1.80;;;;;;;-148.88;89.50;74940.47;5054650;28;20381;-77
2022/07/26 09:09:55;;;;;;;5.50;1.90;;;;;;;-148.88;88.99;74940.47;5054141;28;20031;-77
2022/07/26 09:12:22;;;;;;;5.93;1.90;;;;;;;-148.88;90.63;74932.34;5052834;28;20051;-77
2022/07/26 09:14:49;;;;;;;3.83;1.83;;;;;;;-148.88;90.85;74920.16;5054367;28;20036;-77
2022/07/26 09:17:17;;;;;;;4.93;2.20;;;;;;;-148.88;90.55;74936.41;5054378;28;20482;-77
2022/07/26 09:19:43;;;;;;;5.80;2.13;;;;;;;-148.88;89.63;74934.38;5054452;28;20039;-77
2022/07/26 09:22:11;;;;;;;5.22;2.00;;;;;;;-148.88;90.17;74928.28;5054304;28;20070;-77
2022/07/26 09:24:42;;;;;;;4.43;2.05;;;;;;;-148.88;89.97;74944.53;5054028;28;20039;-77
2022/07/26 09:27:11;;;;;;;5.35;2.17;;;;;;;-148.88;89.73;74932.34;5052836;28;20021;-77
2022/07/26 09:29:51;;;;;;;4.38;2.22;;;;;;;-148.88;91.44;74938.44;5052854;28;20056;-77
2022/07/26 09:32:19;;;;;;;5.95;2.50;;;;;;;-148.88;91.00;74936.41;5053935;28;20033;-77
2022/07/26 09:34:47;;;;;;;4.55;2.30;;;;;;;-148.88;91.09;74922.19;5052840;28;20029;-77
2022/07/26 09:37:12;;;;;;;5.20;2.25;;;;;;;-148.88;90.11;74918.13;5054505;28;20025;-77
2022/07/26 09:39:55;;;;;;;4.07;1.80;;;;;;;-148.88;90.06;74910.00;5054667;28;20100;-77
2022/07/26 09:42:22;;;;;;;3.95;2.22;;;;;;;-148.88;91.01;74920.16;5054455;28;20075;-77
2022/07/26 09:44:48;;;;;;;3.65;2.20;;;;;;;-148.88;90.43;74907.97;5055049;28;20025;-77
2022/07/26 09:47:13;;;;;;;4.75;2.30;;;;;;;-148.88;90.77;74910.00;5054428;28;20496;-78
2022/07/26 09:49:40;;;;;;;5.28;2.10;;;;;;;-148.88;91.17;74905.94;5054551;28;20028;-77
2022/07/26 09:52:14;;;;;;;5.50;1.90;;;;;;;-148.88;91.66;74907.97;5055277;28;20025;-77
2022/07/26 09:54:40;;;;;;;4.68;2.10;;;;;;;-148.88;90.66;74914.06;5055563;28;20079;-77
2022/07/26 09:57:06;;;;;;;3.92;1.55;;;;;;;-148.88;90.19;74916.09;5054193;28;20025;-77
2022/07/26 09:59:31;;;;;;;1.65;0.85;;;;;;;-148.88;82.72;74944.53;5054487;28;20043;-78
2022/07/26 10:01:58;;;;;;;2.88;0.70;;;;;;;-148.88;80.34;75007.47;5054903;28;20029;-77
2022/07/26 10:04:24;;;;;;;2.53;0.70;;;;;;;-148.88;81.28;75070.44;5052816;28;20028;-78
2022/07/26 10:06:50;;;;;;;2.35;0.70;;;;;;;-148.88;83.08;75102.91;5052284;28;20482;-77
2022/07/26 10:09:17;;;;;;;1.83;0.77;;;;;;;-148.88;83.23;75098.84;5053461;28;20025;-78
2022/07/26 10:11:49;;;;;;;1.75;0.50;;;;;;;-148.88;85.37;75106.97;5052376;28;20029;-77
2022/07/26 10:14:41;;;;;;;1.65;0.63;;;;;;;-148.88;86.93;75092.78;5055425;28;20031;-77
2022/07/26 10:17:25;;;;;;;2.35;0.68;;;;;;;-148.88;88.90;75086.69;5056004;28;20064;-77
2022/07/26 10:19:52;;;;;;;2.08;0.80;;;;;;;-148.88;88.50;75062.31;5057302;28;20028;-77
2022/07/26 10:22:24;;;;;;;5.68;1.05;;;;;;;-148.88;87.21;75037.94;5057320;28;20025;-77
2022/07/26 10:24:51;;;;;;;3.78;1.50;;;;;;;-148.88;85.68;75046.06;5055810;28;20021;-78
2022/07/26 10:27:37;;;;;;;3.42;1.00;;;;;;;-148.88;83.70;74956.69;5057141;28;20036;-77
2022/07/26 10:30:21;;;;;;;2.88;0.80;;;;;;;-148.88;80.69;74936.41;5055683;28;20021;-77
2022/07/26 10:32:49;;;;;;;2.97;0.93;;;;;;;-148.88;80.32;74873.44;5056027;28;20510;-77
2022/07/26 10:35:32;;;;;;;3.72;0.90;;;;;;;-148.88;80.00;74885.63;5057295;28;20067;-77
2022/07/26 10:38:05;;;;;;;3.20;0.70;;;;;;;-148.88;78.56;74903.91;5056399;28;20057;-77
2022/07/26 10:40:31;;;;;;;1.65;0.50;;;;;;;-148.88;80.10;74920.16;5056501;28;20043;-78
2022/07/26 10:43:10;;;;;;;3.35;0.75;;;;;;;-148.88;78.98;74970.91;5057377;28;20080;-77
2022/07/26 10:45:36;;;;;;;3.25;0.63;;;;;;;-148.88;79.66;74938.44;5057636;28;20032;-77
2022/07/26 10:48:21;;;;;;;2.33;0.70;;;;;;;-148.88;77.56;74924.22;5056671;28;20036;-77
2022/07/26 10:50:52;;;;;;;2.20;0.80;;;;;;;-148.88;78.11;74934.38;5056905;28;20031;-77
2022/07/26 10:53:23;;;;;;;2.45;0.77;;;;;;;-148.88;78.12;74938.44;5055270;28;20405;-77
2022/07/26 10:55:50;;;;;;;3.90;1.08;;;;;;;-148.88;77.61;74924.22;5056360;28;20033;-77
2022/07/26 10:58:15;;;;;;;5.75;1.00;;;;;;;-148.88;76.80;74871.41;5056935;28;20537;-77
2022/07/26 11:00:57;;;;;;;2.28;0.90;;;;;;;-148.88;73.03;74851.09;5056922;28;20059;-77
2022/07/26 11:03:23;;;;;;;3.97;1.27;;;;;;;-148.88;74.93;74834.84;5055941;28;20028;-77
2022/07/26 11:05:49;;;;;;;3.80;0.80;;;;;;;-148.88;74.83;74794.25;5057312;28;20032;-77
2022/07/26 11:08:15;;;;;;;3.45;1.00;;;;;;;-148.88;74.12;74840.94;5057364;28;20367;-77
2022/07/26 11:10:45;;;;;;;3.63;0.80;;;;;;;-148.88;74.52;74889.69;5056683;28;20027;-77
2022/07/26 11:13:14;;;;;;;3.97;0.95;;;;;;;-148.88;76.18;74895.78;5056938;28;20489;-77
2022/07/26 11:15:42;;;;;;;3.90;0.80;;;;;;;-148.88;76.82;74936.41;5056936;28;20057;-77
2022/07/26 11:18:27;;;;;;;3.15;0.82;;;;;;;-148.88;78.10;74936.41;5055314;28;20086;-78
2022/07/26 11:20:54;;;;;;;3.83;0.88;;;;;;;-148.88;77.86;74950.59;5056913;28;20029;-78